createdAt,value
2023-02-05T00:00:56.518Z,14.52
2023-02-05T00:02:00.241Z,12.75
2023-02-05T00:03:02.895Z,13.18
2023-02-05T00:04:06.419Z,13.15
2023-02-05T00:05:09.138Z,13.82
2023-02-05T00:06:19.808Z,13.60
2023-02-05T00:07:22.309Z,13.05
2023-02-05T00:08:27.568Z,13.38
2023-02-05T00:09:31.389Z,13.35
2023-02-05T00:10:34.829Z,13.40
2023-02-05T00:11:44.440Z,13.25
2023-02-05T00:12:47.005Z,11.40
2023-02-05T00:13:50.415Z,11.85
2023-02-05T00:14:52.954Z,12.50
2023-02-05T00:15:56.486Z,14.02
2023-02-05T00:17:05.428Z,11.35
2023-02-05T00:18:09.056Z,11.27
2023-02-05T00:19:11.538Z,11.07
2023-02-05T00:20:14.948Z,10.98
2023-02-05T00:21:38.457Z,12.88
2023-02-05T00:22:40.987Z,11.05
2023-02-05T00:23:44.461Z,10.98
2023-02-05T00:24:48.593Z,10.13
2023-02-05T00:25:52.009Z,10.57
2023-02-05T00:27:01.508Z,10.05
2023-02-05T00:28:05.118Z,11.30
2023-02-05T00:29:07.657Z,10.65
2023-02-05T00:30:11.647Z,10.82
2023-02-05T00:31:15.543Z,11.30
2023-02-05T00:32:25.462Z,12.88
2023-02-05T00:33:28.054Z,12.13
2023-02-05T00:34:38.525Z,11.50
2023-02-05T00:35:43.066Z,11.60
2023-02-05T00:36:46.678Z,11.27
2023-02-05T00:37:49.168Z,10.55
2023-02-05T00:38:52.984Z,11.38
2023-02-05T00:40:03.448Z,11.05
2023-02-05T00:41:07.224Z,11.80
2023-02-05T00:42:09.719Z,11.38
2023-02-05T00:43:13.177Z,10.85
2023-02-05T00:44:22.486Z,10.77
2023-02-05T00:45:25.946Z,10.40
2023-02-05T00:46:28.670Z,10.30
2023-02-05T00:47:32.158Z,10.07
2023-02-05T00:48:34.746Z,10.43
2023-02-05T00:49:44.439Z,10.52
2023-02-05T00:50:48.452Z,10.82
2023-02-05T00:51:58.420Z,11.00
2023-02-05T00:53:02.055Z,11.88
2023-02-05T00:54:04.570Z,11.25
2023-02-05T00:55:09.932Z,11.05
2023-02-05T00:56:19.476Z,11.48
2023-02-05T00:57:24.777Z,11.35
2023-02-05T00:58:27.621Z,10.93
2023-02-05T00:59:31.046Z,11.20
2023-02-05T01:00:34.068Z,11.50
2023-02-05T01:01:44.454Z,11.20
2023-02-05T01:02:48.037Z,11.68
2023-02-05T01:03:57.474Z,10.73
2023-02-05T01:05:00.904Z,12.15
2023-02-05T01:06:04.371Z,11.73
2023-02-05T01:07:06.903Z,11.57
2023-02-05T01:08:11.023Z,11.05
2023-02-05T01:09:20.468Z,11.82
2023-02-05T01:10:25.238Z,12.38
2023-02-05T01:11:27.698Z,12.02
2023-02-05T01:12:33.267Z,12.48
2023-02-05T01:13:35.786Z,12.00
2023-02-05T01:14:45.486Z,12.00
2023-02-05T01:15:48.069Z,12.43
2023-02-05T01:16:51.562Z,13.38
2023-02-05T01:17:54.079Z,13.65
2023-02-05T01:18:57.768Z,12.10
2023-02-05T01:20:06.503Z,13.23
2023-02-05T01:21:31.411Z,12.15
2023-02-05T01:22:33.940Z,11.50
2023-02-05T01:23:37.422Z,13.40
2023-02-05T01:24:39.932Z,13.30
2023-02-05T01:25:51.512Z,13.82
2023-02-05T01:26:56.161Z,13.45
2023-02-05T01:27:59.652Z,13.40
2023-02-05T01:29:02.162Z,13.10
2023-02-05T01:30:06.218Z,12.90
2023-02-05T01:31:15.574Z,13.43
2023-02-05T01:32:19.116Z,12.90
2023-02-05T01:33:21.632Z,11.88
2023-02-05T01:34:25.153Z,12.63
2023-02-05T01:35:34.825Z,11.73
2023-02-05T01:36:38.464Z,12.55
2023-02-05T01:37:47.432Z,12.05
2023-02-05T01:38:52.826Z,11.93
2023-02-05T01:39:55.351Z,10.82
2023-02-05T01:41:00.375Z,11.52
2023-02-05T01:42:09.452Z,11.38
2023-02-05T01:43:14.567Z,11.30
2023-02-05T01:44:18.642Z,10.70
2023-02-05T01:45:40.779Z,11.43
2023-02-05T01:46:51.459Z,11.00
2023-02-05T01:48:01.466Z,10.38
2023-02-05T01:49:06.424Z,11.18
2023-02-05T01:50:08.938Z,12.02
2023-02-05T01:51:14.646Z,11.38
2023-02-05T01:52:17.854Z,10.43
2023-02-05T01:53:29.466Z,10.95
2023-02-05T01:54:33.927Z,9.27
2023-02-05T01:55:37.328Z,10.15
2023-02-05T01:56:44.417Z,10.25
2023-02-05T01:57:47.206Z,10.10
2023-02-05T01:59:00.513Z,10.57
2023-02-05T02:00:03.368Z,9.38
2023-02-05T02:01:06.895Z,9.98
2023-02-05T02:02:10.386Z,10.95
2023-02-05T02:03:15.158Z,10.02
2023-02-05T02:04:29.827Z,10.65
2023-02-05T02:05:32.647Z,9.75
2023-02-05T02:06:37.112Z,11.20
2023-02-05T02:07:39.566Z,11.57
2023-02-05T02:08:43.044Z,10.93
2023-02-05T02:09:53.432Z,11.63
2023-02-05T02:10:58.202Z,11.05
2023-02-05T02:12:03.013Z,12.05
2023-02-05T02:13:05.596Z,12.02
2023-02-05T02:14:16.449Z,11.13
2023-02-05T02:15:20.291Z,11.32
2023-02-05T02:16:24.003Z,11.57
2023-02-05T02:17:27.456Z,11.60
2023-02-05T02:18:31.302Z,11.07
2023-02-05T02:19:44.442Z,11.77
2023-02-05T02:20:57.438Z,10.73
2023-02-05T02:22:34.420Z,11.43
2023-02-05T02:23:41.392Z,10.73
2023-02-05T02:24:54.471Z,11.20
2023-02-05T02:26:18.445Z,11.80
2023-02-05T02:27:39.688Z,10.88
2023-02-05T02:28:47.432Z,10.57
2023-02-05T02:29:53.051Z,10.77
2023-02-05T02:31:06.486Z,10.88
2023-02-05T02:32:13.455Z,10.23
2023-02-05T02:33:20.390Z,11.20
2023-02-05T02:34:27.133Z,10.55
2023-02-05T02:35:34.492Z,11.13
2023-02-05T02:36:45.468Z,10.70
2023-02-05T02:37:51.670Z,11.15
2023-02-05T02:38:56.259Z,11.07
2023-02-05T02:40:00.890Z,10.77
2023-02-05T02:41:07.335Z,12.98
2023-02-05T02:42:21.438Z,12.27
2023-02-05T02:43:27.050Z,10.52
2023-02-05T02:44:34.039Z,12.65
2023-02-05T02:45:40.298Z,12.07
2023-02-05T02:46:44.097Z,12.50
2023-02-05T02:47:55.407Z,12.90
2023-02-05T02:48:59.622Z,12.63
2023-02-05T02:50:04.925Z,11.88
2023-02-05T02:51:08.346Z,12.95
2023-02-05T02:52:20.469Z,12.18
2023-02-05T02:53:24.982Z,12.70
2023-02-05T02:54:28.640Z,12.13
2023-02-05T02:55:32.942Z,12.70
2023-02-05T02:56:39.185Z,12.13
2023-02-05T02:57:50.504Z,13.20
2023-02-05T02:58:55.239Z,13.35
2023-02-05T03:00:01.031Z,14.52
2023-02-05T03:01:05.565Z,17.20
2023-02-05T03:02:10.430Z,17.60
2023-02-05T03:03:21.476Z,16.13
2023-02-05T03:04:26.701Z,15.35
2023-02-05T03:05:32.838Z,15.00
2023-02-05T03:06:36.532Z,14.98
2023-02-05T03:07:41.254Z,14.45
2023-02-05T03:08:56.528Z,14.07
2023-02-05T03:10:02.701Z,13.60
2023-02-05T03:11:07.619Z,13.50
2023-02-05T03:12:11.015Z,12.55
2023-02-05T03:13:13.687Z,13.18
2023-02-05T03:14:23.485Z,13.30
2023-02-05T03:15:27.316Z,13.60
2023-02-05T03:16:30.814Z,13.77
2023-02-05T03:17:33.355Z,13.68
2023-02-05T03:18:36.888Z,13.93
2023-02-05T03:19:45.466Z,15.27
2023-02-05T03:20:51.831Z,14.55
2023-02-05T03:22:16.449Z,17.15
2023-02-05T03:23:20.183Z,16.98
2023-02-05T03:24:22.754Z,20.10
2023-02-05T03:25:34.749Z,21.50
2023-02-05T03:26:38.390Z,20.10
2023-02-05T03:27:41.976Z,20.15
2023-02-05T03:28:44.523Z,21.05
2023-02-05T03:29:48.195Z,19.38
2023-02-05T03:31:04.561Z,18.63
2023-02-05T03:32:15.624Z,19.55
2023-02-05T03:33:24.955Z,18.73
2023-02-05T03:34:33.935Z,18.00
2023-02-05T03:35:41.536Z,17.42
2023-02-05T03:36:56.546Z,16.85
2023-02-05T03:38:08.247Z,17.10
2023-02-05T03:39:19.994Z,16.08
2023-02-05T03:40:25.361Z,15.68
2023-02-05T03:41:52.106Z,15.77
2023-02-05T03:43:07.533Z,15.68
2023-02-05T03:44:13.967Z,15.48
2023-02-05T03:45:30.649Z,15.98
2023-02-05T03:46:42.464Z,17.00
2023-02-05T03:47:53.719Z,16.02
2023-02-05T03:49:08.436Z,17.08
2023-02-05T03:50:14.693Z,16.65
2023-02-05T03:51:20.582Z,18.40
2023-02-05T03:52:27.834Z,16.60
2023-02-05T03:53:33.994Z,17.45
2023-02-05T03:54:47.482Z,17.45
2023-02-05T03:55:51.679Z,17.85
2023-02-05T03:56:59.284Z,18.25
2023-02-05T03:58:03.282Z,18.55
2023-02-05T03:59:07.050Z,19.75
2023-02-05T04:00:16.434Z,20.05
2023-02-05T04:01:27.485Z,17.95
2023-02-05T04:02:31.366Z,17.98
2023-02-05T04:03:34.839Z,17.05
2023-02-05T04:04:37.345Z,19.67
2023-02-05T04:05:47.426Z,17.63
2023-02-05T04:06:52.140Z,17.83
2023-02-05T04:07:55.582Z,17.65
2023-02-05T04:08:58.116Z,19.90
2023-02-05T04:10:01.566Z,19.23
2023-02-05T04:11:10.476Z,18.85
2023-02-05T04:12:13.889Z,18.70
2023-02-05T04:13:16.418Z,18.52
2023-02-05T04:14:19.860Z,17.13
2023-02-05T04:15:22.376Z,16.00
2023-02-05T04:16:32.696Z,16.00
2023-02-05T04:17:36.698Z,15.50
2023-02-05T04:18:40.132Z,14.75
2023-02-05T04:19:42.622Z,14.35
2023-02-05T04:20:46.076Z,16.60
2023-02-05T04:22:01.491Z,15.02
2023-02-05T04:23:18.464Z,14.82
2023-02-05T04:24:20.981Z,15.88
2023-02-05T04:25:30.496Z,14.30
2023-02-05T04:26:33.003Z,14.23
2023-02-05T04:27:36.464Z,14.57
2023-02-05T04:28:38.958Z,13.95
2023-02-05T04:29:42.395Z,15.13
2023-02-05T04:30:51.514Z,14.30
2023-02-05T04:31:54.944Z,14.00
2023-02-05T04:33:05.435Z,14.27
2023-02-05T04:34:08.895Z,13.88
2023-02-05T04:35:13.317Z,14.60
2023-02-05T04:36:16.740Z,14.13
2023-02-05T04:37:25.429Z,14.35
2023-02-05T04:38:29.132Z,14.02
2023-02-05T04:39:38.488Z,14.90
2023-02-05T04:40:41.943Z,14.55
2023-02-05T04:41:44.473Z,14.45
2023-02-05T04:42:47.912Z,14.82
2023-02-05T04:43:50.381Z,14.10
2023-02-05T04:45:01.452Z,15.75
2023-02-05T04:46:07.142Z,14.02
2023-02-05T04:47:10.723Z,13.48
2023-02-05T04:48:14.560Z,13.25
2023-02-05T04:49:18.021Z,12.82
2023-02-05T04:50:27.467Z,14.02
2023-02-05T04:51:30.910Z,15.13
2023-02-05T04:52:33.436Z,12.52
2023-02-05T04:53:36.949Z,13.30
2023-02-05T04:54:46.479Z,13.07
2023-02-05T04:55:49.955Z,12.48
2023-02-05T04:56:52.459Z,13.95
2023-02-05T04:57:55.924Z,13.52
2023-02-05T04:59:04.712Z,12.65
2023-02-05T05:00:15.471Z,13.30
2023-02-05T05:01:19.052Z,14.23
2023-02-05T05:02:23.193Z,12.85
2023-02-05T05:03:27.096Z,14.43
2023-02-05T05:04:30.583Z,13.05
2023-02-05T05:05:39.457Z,13.00
2023-02-05T05:06:49.510Z,13.07
2023-02-05T05:07:52.002Z,13.60
2023-02-05T05:08:55.656Z,14.88
2023-02-05T05:09:58.183Z,14.73
2023-02-05T05:11:06.329Z,13.90
2023-02-05T05:12:15.448Z,13.05
2023-02-05T05:13:18.857Z,13.40
2023-02-05T05:14:21.399Z,12.85
2023-02-05T05:15:24.808Z,13.20
2023-02-05T05:16:27.353Z,13.52
2023-02-05T05:17:37.447Z,14.57
2023-02-05T05:18:42.143Z,14.35
2023-02-05T05:19:52.494Z,14.80
2023-02-05T05:20:54.995Z,15.40
2023-02-05T05:22:18.450Z,15.20
2023-02-05T05:23:20.976Z,14.00
2023-02-05T05:24:30.462Z,14.38
2023-02-05T05:25:39.449Z,13.30
2023-02-05T05:26:45.155Z,13.85
2023-02-05T05:27:48.666Z,13.57
2023-02-05T05:28:54.376Z,15.63
2023-02-05T05:30:04.452Z,14.18
2023-02-05T05:31:07.760Z,15.27
2023-02-05T05:32:11.300Z,15.02
2023-02-05T05:33:14.196Z,15.38
2023-02-05T05:34:18.962Z,15.73
2023-02-05T05:35:27.472Z,15.73
2023-02-05T05:36:31.171Z,16.00
2023-02-05T05:37:33.663Z,15.35
2023-02-05T05:38:37.223Z,15.35
2023-02-05T05:40:04.473Z,16.33
2023-02-05T05:41:25.674Z,15.23
2023-02-05T05:42:46.611Z,16.38
2023-02-05T05:43:50.547Z,16.27
2023-02-05T05:44:59.447Z,15.60
2023-02-05T05:46:03.021Z,15.38
2023-02-05T05:47:05.592Z,17.48
2023-02-05T05:48:16.465Z,17.95
2023-02-05T05:49:20.305Z,17.20
2023-02-05T05:50:23.738Z,17.52
2023-02-05T05:51:33.490Z,16.63
2023-02-05T05:52:36.915Z,16.50
2023-02-05T05:53:39.421Z,16.67
2023-02-05T05:54:43.014Z,16.17
2023-02-05T05:55:45.544Z,16.10
2023-02-05T05:56:56.512Z,16.83
2023-02-05T05:57:59.015Z,16.85
2023-02-05T05:59:02.442Z,18.30
2023-02-05T06:00:05.512Z,16.77
2023-02-05T06:01:10.024Z,18.13
2023-02-05T06:02:19.524Z,17.42
2023-02-05T06:03:24.088Z,17.08
2023-02-05T06:04:27.912Z,17.48
2023-02-05T06:05:31.614Z,18.00
2023-02-05T06:06:34.550Z,16.70
2023-02-05T06:07:44.968Z,16.05
2023-02-05T06:08:47.569Z,15.60
2023-02-05T06:09:57.673Z,15.52
2023-02-05T06:11:00.208Z,15.13
2023-02-05T06:12:03.658Z,15.27
2023-02-05T06:13:12.458Z,14.73
2023-02-05T06:14:16.276Z,13.80
2023-02-05T06:15:18.978Z,14.38
2023-02-05T06:16:22.432Z,13.38
2023-02-05T06:17:24.972Z,14.40
2023-02-05T06:18:34.476Z,15.30
2023-02-05T06:19:38.316Z,46.13
2023-02-05T06:20:41.736Z,33.00
2023-02-05T06:21:57.456Z,19.05
2023-02-05T06:23:07.676Z,15.32
2023-02-05T06:24:10.246Z,15.15
2023-02-05T06:25:20.488Z,15.38
2023-02-05T06:26:23.008Z,18.92
2023-02-05T06:27:33.693Z,18.55
2023-02-05T06:28:36.227Z,15.50
2023-02-05T06:29:39.649Z,14.32
2023-02-05T06:30:42.168Z,14.40
2023-02-05T06:31:45.713Z,13.73
2023-02-05T06:32:54.497Z,13.20
2023-02-05T06:33:57.951Z,13.13
2023-02-05T06:35:08.526Z,13.27
2023-02-05T06:36:12.185Z,11.90
2023-02-05T06:37:14.781Z,12.38
2023-02-05T06:38:18.254Z,12.02
2023-02-05T06:39:20.786Z,11.55
2023-02-05T06:40:34.477Z,13.05
2023-02-05T06:41:36.970Z,11.82
2023-02-05T06:42:40.689Z,12.80
2023-02-05T06:43:43.178Z,12.15
2023-02-05T06:44:46.618Z,11.30
2023-02-05T06:45:55.466Z,11.68
2023-02-05T06:46:58.885Z,11.60
2023-02-05T06:48:01.406Z,12.25
2023-02-05T06:49:04.869Z,13.68
2023-02-05T06:50:08.909Z,12.27
2023-02-05T06:51:20.476Z,12.27
2023-02-05T06:52:23.000Z,13.45
2023-02-05T06:53:26.429Z,13.35
2023-02-05T06:54:28.978Z,13.68
2023-02-05T06:55:32.756Z,13.82
2023-02-05T06:56:42.470Z,15.07
2023-02-05T06:57:45.993Z,14.25
2023-02-05T06:58:48.502Z,14.25
2023-02-05T06:59:51.934Z,14.05
2023-02-05T07:00:54.416Z,14.23
2023-02-05T07:02:04.449Z,15.15
2023-02-05T07:03:06.971Z,16.98
2023-02-05T07:04:10.454Z,17.50
2023-02-05T07:05:14.308Z,16.52
2023-02-05T07:06:24.512Z,16.58
2023-02-05T07:07:27.019Z,16.38
2023-02-05T07:08:30.577Z,16.27
2023-02-05T07:09:34.093Z,15.73
2023-02-05T07:10:36.632Z,16.48
2023-02-05T07:11:46.523Z,15.43
2023-02-05T07:12:49.004Z,15.98
2023-02-05T07:13:52.470Z,16.08
2023-02-05T07:14:55.052Z,16.90
2023-02-05T07:15:58.506Z,16.23
2023-02-05T07:17:07.482Z,15.63
2023-02-05T07:18:11.029Z,15.88
2023-02-05T07:19:13.773Z,15.82
2023-02-05T07:20:18.843Z,15.93
2023-02-05T07:21:21.434Z,16.08
2023-02-05T07:22:31.476Z,17.13
2023-02-05T07:23:40.494Z,17.90
2023-02-05T07:24:44.173Z,21.17
2023-02-05T07:25:46.698Z,21.38
2023-02-05T07:26:56.475Z,18.08
2023-02-05T07:27:59.011Z,16.65
2023-02-05T07:29:02.482Z,16.75
2023-02-05T07:30:11.538Z,16.83
2023-02-05T07:31:16.633Z,16.40
2023-02-05T07:32:19.265Z,17.02
2023-02-05T07:33:22.697Z,16.52
2023-02-05T07:34:26.126Z,15.23
2023-02-05T07:35:36.787Z,16.15
2023-02-05T07:36:40.306Z,16.55
2023-02-05T07:37:42.802Z,16.55
2023-02-05T07:38:47.255Z,16.35
2023-02-05T07:39:49.811Z,16.10
2023-02-05T07:40:59.518Z,18.25
2023-02-05T07:42:02.070Z,17.40
2023-02-05T07:43:05.538Z,19.73
2023-02-05T07:44:08.062Z,30.08
2023-02-05T07:45:11.701Z,52.35
2023-02-05T07:46:21.468Z,45.55
2023-02-05T07:47:24.910Z,57.55
2023-02-05T07:48:27.951Z,57.97
2023-02-05T07:49:31.470Z,44.40
2023-02-05T07:50:35.332Z,33.65
2023-02-05T07:51:45.491Z,35.63
2023-02-05T07:52:54.480Z,28.65
2023-02-05T07:53:57.939Z,28.27
2023-02-05T07:55:00.467Z,27.60
2023-02-05T07:56:04.685Z,26.35
2023-02-05T07:57:13.512Z,25.90
2023-02-05T07:58:17.009Z,25.50
2023-02-05T07:59:19.569Z,27.63
2023-02-05T08:00:24.916Z,25.27
2023-02-05T08:01:27.407Z,28.05
2023-02-05T08:02:37.489Z,24.77
2023-02-05T08:03:41.205Z,23.27
2023-02-05T08:04:43.726Z,22.65
2023-02-05T08:05:48.480Z,23.30
2023-02-05T08:06:50.996Z,24.92
2023-02-05T08:08:01.431Z,24.02
2023-02-05T08:09:04.892Z,22.75
2023-02-05T08:10:07.722Z,23.60
2023-02-05T08:11:14.898Z,23.83
2023-02-05T08:12:17.397Z,24.23
2023-02-05T08:13:27.497Z,24.35
2023-02-05T08:14:31.276Z,23.20
2023-02-05T08:15:41.470Z,21.15
2023-02-05T08:16:44.008Z,21.77
2023-02-05T08:17:47.498Z,23.00
2023-02-05T08:18:56.500Z,21.17
2023-02-05T08:20:07.035Z,22.35
2023-02-05T08:21:10.890Z,25.98
2023-02-05T08:22:20.633Z,26.10
2023-02-05T08:23:36.455Z,26.13
2023-02-05T08:24:46.460Z,26.17
2023-02-05T08:25:55.455Z,24.67
2023-02-05T08:26:58.911Z,24.45
2023-02-05T08:28:01.501Z,23.05
2023-02-05T08:29:05.076Z,22.60
2023-02-05T08:30:17.435Z,20.60
2023-02-05T08:31:21.286Z,20.75
2023-02-05T08:32:23.799Z,20.50
2023-02-05T08:33:27.344Z,21.40
2023-02-05T08:34:37.544Z,21.58
2023-02-05T08:35:40.030Z,22.00
2023-02-05T08:36:44.746Z,19.40
2023-02-05T08:37:47.311Z,18.48
2023-02-05T08:38:50.834Z,19.20
2023-02-05T08:40:00.473Z,20.67
2023-02-05T08:41:18.476Z,19.30
2023-02-05T08:42:22.076Z,23.83
2023-02-05T08:43:25.669Z,25.33
2023-02-05T08:44:28.819Z,25.70
2023-02-05T08:45:32.747Z,23.95
2023-02-05T08:46:49.802Z,26.60
2023-02-05T08:47:53.490Z,33.35
2023-02-05T08:48:56.918Z,34.22
2023-02-05T08:50:00.372Z,33.75
2023-02-05T08:51:03.884Z,36.08
2023-02-05T08:52:15.483Z,41.08
2023-02-05T08:53:18.924Z,40.22
2023-02-05T08:54:22.527Z,35.88
2023-02-05T08:55:25.020Z,31.85
2023-02-05T08:56:35.572Z,29.08
2023-02-05T08:57:38.121Z,27.63
2023-02-05T08:58:42.043Z,27.77
2023-02-05T08:59:45.579Z,27.75
2023-02-05T09:00:49.478Z,28.23
2023-02-05T09:01:58.512Z,26.25
2023-02-05T09:03:02.162Z,25.25
2023-02-05T09:04:04.842Z,21.35
2023-02-05T09:05:09.638Z,21.50
2023-02-05T09:06:14.852Z,22.25
2023-02-05T09:07:25.494Z,20.33
2023-02-05T09:08:31.243Z,19.55
2023-02-05T09:09:36.915Z,19.02
2023-02-05T09:10:39.478Z,18.90
2023-02-05T09:11:43.279Z,18.13
2023-02-05T09:12:54.477Z,17.33
2023-02-05T09:13:58.451Z,17.38
2023-02-05T09:15:01.021Z,16.88
2023-02-05T09:16:04.645Z,16.65
2023-02-05T09:17:08.848Z,17.90
2023-02-05T09:18:17.464Z,19.38
2023-02-05T09:19:34.464Z,25.45
2023-02-05T09:20:41.933Z,22.85
2023-02-05T09:21:44.451Z,25.38
2023-02-05T09:23:09.433Z,28.23
2023-02-05T09:24:19.491Z,25.17
2023-02-05T09:25:23.030Z,22.13
2023-02-05T09:26:26.600Z,22.38
2023-02-05T09:27:30.540Z,20.13
2023-02-05T09:28:40.560Z,21.65
2023-02-05T09:29:43.102Z,21.20
2023-02-05T09:30:47.770Z,18.67
2023-02-05T09:31:51.434Z,20.08
2023-02-05T09:32:53.995Z,19.90
2023-02-05T09:34:03.511Z,21.85
2023-02-05T09:35:06.184Z,20.58
2023-02-05T09:36:09.852Z,21.55
2023-02-05T09:37:12.522Z,21.08
2023-02-05T09:38:18.709Z,20.88
2023-02-05T09:40:11.839Z,20.77
2023-02-05T09:40:56.761Z,19.45
2023-02-05T09:42:01.619Z,19.58
2023-02-05T09:43:07.568Z,19.70
2023-02-05T09:44:21.474Z,19.85
2023-02-05T09:45:32.235Z,18.30
2023-02-05T09:46:39.995Z,17.75
2023-02-05T09:47:44.312Z,18.52
2023-02-05T09:49:01.501Z,17.13
2023-02-05T09:50:16.488Z,16.17
2023-02-05T09:51:20.874Z,15.35
2023-02-05T09:52:27.627Z,16.13
2023-02-05T09:53:34.881Z,17.17
2023-02-05T09:54:41.009Z,16.67
2023-02-05T09:55:51.512Z,16.65
2023-02-05T09:56:55.713Z,19.20
2023-02-05T09:58:01.397Z,20.83
2023-02-05T09:59:06.447Z,19.17
2023-02-05T10:00:18.312Z,21.75
2023-02-05T10:01:34.521Z,17.98
2023-02-05T10:02:39.332Z,19.00
2023-02-05T10:03:44.213Z,22.75
2023-02-05T10:04:47.650Z,26.80
2023-02-05T10:06:12.564Z,25.42
2023-02-05T10:07:21.116Z,20.08
2023-02-05T10:08:28.751Z,20.15
2023-02-05T10:09:50.607Z,20.00
2023-02-05T10:10:56.024Z,18.33
2023-02-05T10:12:07.472Z,17.02
2023-02-05T10:13:30.553Z,17.83
2023-02-05T10:14:42.205Z,18.15
2023-02-05T10:15:53.024Z,17.00
2023-02-05T10:17:02.979Z,16.20
2023-02-05T10:18:13.148Z,15.75
2023-02-05T10:19:33.484Z,15.75
2023-02-05T10:20:48.237Z,16.08
2023-02-05T10:21:57.417Z,16.15
2023-02-05T10:23:20.476Z,15.85
2023-02-05T10:24:40.493Z,17.27
2023-02-05T10:25:50.665Z,15.68
2023-02-05T10:26:57.227Z,16.20
2023-02-05T10:28:10.605Z,16.38
2023-02-05T10:29:18.716Z,17.10
2023-02-05T10:30:25.707Z,16.05
2023-02-05T10:31:37.138Z,16.50
2023-02-05T10:32:48.072Z,16.50
2023-02-05T10:33:58.543Z,16.63
2023-02-05T10:35:04.774Z,15.73
2023-02-05T10:36:09.067Z,16.33
2023-02-05T10:37:17.296Z,15.57
2023-02-05T10:38:30.717Z,15.00
2023-02-05T10:39:40.467Z,14.02
2023-02-05T10:40:46.846Z,13.82
2023-02-05T10:41:52.952Z,17.23
2023-02-05T10:43:03.184Z,20.58
2023-02-05T10:44:16.813Z,20.13
2023-02-05T10:45:21.004Z,25.73
2023-02-05T10:46:29.267Z,19.58
2023-02-05T10:47:45.913Z,15.77
2023-02-05T10:48:52.152Z,12.63
2023-02-05T10:50:03.432Z,12.45
2023-02-05T10:51:08.028Z,14.85
2023-02-05T10:52:12.436Z,12.30
2023-02-05T10:53:19.034Z,12.38
2023-02-05T10:54:25.412Z,12.00
2023-02-05T10:55:34.735Z,12.55
2023-02-05T10:56:38.268Z,12.25
2023-02-05T10:57:40.777Z,10.32
2023-02-05T10:58:49.712Z,10.35
2023-02-05T11:00:01.621Z,11.00
2023-02-05T11:01:06.633Z,10.88
2023-02-05T11:02:11.711Z,10.23
2023-02-05T11:03:17.465Z,11.65
2023-02-05T11:04:24.066Z,11.30
2023-02-05T11:05:38.464Z,11.63
2023-02-05T11:06:42.802Z,11.82
2023-02-05T11:07:46.272Z,12.48
2023-02-05T11:08:49.892Z,12.93
2023-02-05T11:09:53.560Z,12.77
2023-02-05T11:11:02.492Z,12.23
2023-02-05T11:12:06.827Z,11.98
2023-02-05T11:13:19.783Z,12.13
2023-02-05T11:14:28.748Z,11.40
2023-02-05T11:15:39.557Z,11.00
2023-02-05T11:16:44.772Z,8.57
2023-02-05T11:17:51.277Z,8.05
2023-02-05T11:18:59.095Z,5.55
2023-02-05T11:20:05.139Z,5.85
2023-02-05T11:21:15.488Z,5.70
2023-02-05T11:22:35.288Z,5.22
2023-02-05T11:24:02.453Z,4.72
2023-02-05T11:25:14.708Z,3.85
2023-02-05T11:26:26.481Z,3.95
2023-02-05T11:27:31.714Z,3.58
2023-02-05T11:28:36.749Z,4.03
2023-02-05T11:29:40.483Z,3.85
2023-02-05T11:30:58.584Z,4.10
2023-02-05T11:32:08.633Z,4.28
2023-02-05T11:33:20.232Z,4.55
2023-02-05T11:34:23.617Z,4.25
2023-02-05T11:35:27.253Z,3.88
2023-02-05T11:36:37.488Z,3.78
2023-02-05T11:37:40.378Z,3.90
2023-02-05T11:38:47.619Z,4.00
2023-02-05T11:39:54.911Z,3.67
2023-02-05T11:40:59.216Z,3.80
2023-02-05T11:42:16.504Z,4.00
2023-02-05T11:43:23.808Z,3.70
2023-02-05T11:44:32.152Z,2.67
2023-02-05T11:45:40.166Z,2.50
2023-02-05T11:46:45.366Z,1.38
2023-02-05T11:47:54.469Z,1.20
2023-02-05T11:48:59.638Z,0.93
2023-02-05T11:50:03.193Z,1.00
2023-02-05T11:51:08.708Z,0.57
2023-02-05T11:52:19.486Z,0.80
2023-02-05T11:53:22.208Z,0.75
2023-02-05T11:54:29.834Z,0.80
2023-02-05T11:55:34.943Z,1.15
2023-02-05T11:56:37.571Z,1.77
2023-02-05T11:57:48.517Z,1.73
2023-02-05T11:59:00.045Z,1.77
2023-02-05T12:00:03.564Z,1.05
2023-02-05T12:01:23.989Z,1.30
2023-02-05T12:02:43.560Z,1.35
2023-02-05T12:03:59.315Z,1.13
2023-02-05T12:05:04.638Z,1.15
2023-02-05T12:06:13.176Z,1.58
2023-02-05T12:07:17.153Z,1.65
2023-02-05T12:08:32.483Z,1.00
2023-02-05T12:09:36.063Z,1.48
2023-02-05T12:10:43.431Z,1.67
2023-02-05T12:12:04.116Z,1.50
2023-02-05T12:13:25.557Z,1.33
2023-02-05T12:14:33.202Z,1.23
2023-02-05T12:15:38.779Z,1.80
2023-02-05T12:16:48.369Z,2.00
2023-02-05T12:17:55.902Z,1.77
2023-02-05T12:19:11.510Z,1.30
2023-02-05T12:20:20.206Z,1.50
2023-02-05T12:21:27.016Z,1.58
2023-02-05T12:22:44.680Z,1.80
2023-02-05T12:24:22.545Z,1.42
2023-02-05T12:25:33.811Z,1.73
2023-02-05T12:26:38.984Z,1.85
2023-02-05T12:27:50.594Z,1.70
2023-02-05T12:28:59.200Z,2.05
2023-02-05T12:30:14.680Z,1.90
2023-02-05T12:31:23.402Z,2.25
2023-02-05T12:32:34.026Z,1.75
2023-02-05T12:33:50.613Z,1.55
2023-02-05T12:35:00.560Z,1.73
2023-02-05T12:36:15.544Z,2.75
2023-02-05T12:37:23.741Z,2.30
2023-02-05T12:38:33.031Z,1.92
2023-02-05T12:39:40.143Z,1.45
2023-02-05T12:40:56.550Z,1.30
2023-02-05T12:42:06.904Z,1.30
2023-02-05T12:43:15.864Z,1.27
2023-02-05T12:44:26.809Z,1.00
2023-02-05T12:45:37.928Z,1.27
2023-02-05T12:46:55.502Z,1.75
2023-02-05T12:48:06.919Z,1.58
2023-02-05T12:49:27.554Z,1.30
2023-02-05T12:50:43.177Z,1.30
2023-02-05T12:51:54.828Z,1.17
2023-02-05T12:53:02.439Z,1.48
2023-02-05T12:54:36.539Z,1.40
2023-02-05T12:55:48.109Z,1.27
2023-02-05T12:56:54.990Z,1.50
2023-02-05T12:58:01.168Z,1.90
2023-02-05T12:59:06.360Z,1.92
2023-02-05T13:00:21.519Z,1.40
2023-02-05T13:01:25.797Z,2.38
2023-02-05T13:02:31.282Z,2.20
2023-02-05T13:03:38.841Z,1.83
2023-02-05T13:05:07.565Z,1.70
2023-02-05T13:06:19.064Z,1.48
2023-02-05T13:07:28.451Z,1.40
2023-02-05T13:08:42.785Z,1.40
2023-02-05T13:09:50.527Z,1.33
2023-02-05T13:11:02.520Z,1.17
2023-02-05T13:12:08.763Z,1.92
2023-02-05T13:13:16.503Z,2.10
2023-02-05T13:14:23.121Z,2.08
2023-02-05T13:15:29.193Z,2.60
2023-02-05T13:16:41.620Z,2.38
2023-02-05T13:17:51.566Z,2.17
2023-02-05T13:18:59.784Z,1.75
2023-02-05T13:20:04.593Z,1.92
2023-02-05T13:21:33.546Z,2.33
2023-02-05T13:23:03.339Z,2.80
2023-02-05T13:24:47.538Z,2.20
2023-02-05T13:26:09.710Z,2.20
2023-02-05T13:27:37.281Z,2.00
2023-02-05T13:28:44.441Z,1.80
2023-02-05T13:29:57.561Z,1.52
2023-02-05T13:31:02.723Z,1.63
2023-02-05T13:32:15.937Z,2.47
2023-02-05T13:33:19.021Z,2.92
2023-02-05T13:34:23.874Z,2.22
2023-02-05T13:35:33.817Z,1.95
2023-02-05T13:36:52.386Z,2.00
2023-02-05T13:38:02.067Z,1.85
2023-02-05T13:39:24.385Z,1.55
2023-02-05T13:40:52.742Z,2.50
2023-02-05T13:42:03.246Z,3.00
2023-02-05T13:43:23.526Z,2.53
2023-02-05T13:44:45.878Z,3.95
2023-02-05T13:46:28.504Z,3.78
2023-02-05T13:47:46.568Z,3.95
2023-02-05T13:49:13.583Z,4.80
2023-02-05T13:50:29.381Z,3.35
2023-02-05T13:51:43.089Z,3.63
2023-02-05T13:53:07.306Z,3.38
2023-02-05T13:54:35.633Z,3.40
2023-02-05T13:55:57.492Z,16.38
2023-02-05T13:57:05.095Z,5.65
2023-02-05T13:58:19.495Z,5.28
2023-02-05T13:59:24.758Z,3.85
2023-02-05T14:00:34.518Z,3.22
2023-02-05T14:01:42.271Z,3.72
2023-02-05T14:02:46.330Z,4.05
2023-02-05T14:04:03.578Z,4.53
2023-02-05T14:05:07.805Z,5.15
2023-02-05T14:06:21.866Z,4.97
2023-02-05T14:07:28.045Z,3.78
2023-02-05T14:08:32.859Z,4.25
2023-02-05T14:09:43.543Z,4.93
2023-02-05T14:10:47.827Z,4.25
2023-02-05T14:11:55.854Z,4.13
2023-02-05T14:13:11.321Z,4.28
2023-02-05T14:14:30.520Z,4.15
2023-02-05T14:15:38.735Z,3.70
2023-02-05T14:16:49.689Z,4.10
2023-02-05T14:17:55.450Z,4.28
2023-02-05T14:19:16.053Z,4.68
2023-02-05T14:20:42.541Z,5.35
2023-02-05T14:22:04.405Z,5.75
2023-02-05T14:23:40.655Z,5.47
2023-02-05T14:24:47.404Z,5.07
2023-02-05T14:26:12.592Z,5.82
2023-02-05T14:27:36.622Z,5.55
2023-02-05T14:28:47.356Z,5.63
2023-02-05T14:29:51.499Z,5.45
2023-02-05T14:30:57.563Z,5.75
2023-02-05T14:32:08.961Z,6.25
2023-02-05T14:33:30.206Z,5.97
2023-02-05T14:34:57.516Z,6.60
2023-02-05T14:36:22.380Z,6.90
2023-02-05T14:37:43.392Z,6.85
2023-02-05T14:38:58.534Z,6.68
2023-02-05T14:40:13.269Z,7.30
2023-02-05T14:41:18.011Z,6.00